Aérodrome :
LOGIN :

S'inscrire | Disclaimer

   EN    FR    IT 

 










Légende :    VFR   VFR Marginal   IFR   IFR Intensif   IFR Très Intensif
Visi : 
Plafond : 
>= 8 km
>= 3000ft
5 à 8 km
1000 à 3000 ft
1500m à 5 km
500 à 1000 ft
800 à 1500m
200 à 500 ft
< 800m
< 200 ft
Symboles :   Orages  Brouillard  Fortes neiges  Fortes précipitations  Vent > 20 kt
SIGMETs :   Divers  Orages  Givrage  Turbulence  Onde Orograph.  Cendres Volcan.







- Altitude de l'aérodrome : 1966 ft
- Code IATA : SGE


EDGS - Siegerland

DERNIER METAR :
  • 101650Z 30017G27KT 270V340 7000 -SHSN SCT002 BKN004 01/01 Q1018

METARs EXPIRÉS :
  • 101620Z 29015G26KT 260V320 8000 SCT002 BKN005 01/01 Q1018
  • 101550Z 30015KT 9999 FEW002 BKN004 01/01 Q1018
  • 101520Z 29016KT 250V320 9999 FEW001 BKN003 01/01 Q1018
  • 101450Z 30019KT 6000 SCT001 BKN003 01/01 Q1018
  • 101420Z 28014KT 6000 1200N R31/P2000D -SHSN BCFG OVC001 01/01 Q1017

TAF TAF EDGS
Valide du 10 à 15h jusqu'au 11 à 00h UTC


101400Z 1015/1024 29014KT 6000 BKN005
PROB40
TEMPO 1015/1018 30020G30KT 0700 SHSN BKN001TCU
PROB30
TEMPO 1018/1024 30015G25KT 1000 -SHSN BKN001TCU
Pas de NOTAMs connus pour ce terrain.
1 SIGMET publié pour la FIR Langen (EDGG) :
 
Turbulence forte
EDGG SIGMET 1 VALID 101413/101700 EDZF
EDGG LANGEN FIR SEV TURB OBS SW OF LINE N5025 E00625 - N4830 E00935 FL180/220 STNR NC=



MET'MAP, la Météo Aéronautique d'un coup d'oeil ! - Copyright ORBIFLY Décembre 2007 - Disclaimer

ORBIFLY MET'MAP TEAM :

Programmation & Développement : Alexandra Zaïnal
Conception & Développement : Baudouin d'Aumeries
Co-Programmation & Développement : Marc-Olivier Méhu
Soutien technique & logistique : Manuel Goepfert

Contact : metmap@orbifly.com




SOURCES & CREDITS :

   NOAA